createdAt,value
2017-05-17T00:00:14.391Z,0
2017-05-17T00:01:24.652Z,0
2017-05-17T00:02:34.908Z,0
2017-05-17T00:03:45.175Z,0
2017-05-17T00:04:55.485Z,0
2017-05-17T00:06:05.746Z,0
2017-05-17T00:07:16.004Z,0
2017-05-17T00:08:25.960Z,0
2017-05-17T00:09:36.222Z,0
2017-05-17T00:10:46.172Z,0
2017-05-17T00:11:56.435Z,0
2017-05-17T00:13:06.701Z,0
2017-05-17T00:14:16.964Z,0
2017-05-17T00:15:26.599Z,0
2017-05-17T00:16:36.863Z,0
2017-05-17T00:17:47.126Z,0
2017-05-17T00:18:57.409Z,0
2017-05-17T00:20:07.676Z,0
2017-05-17T00:21:17.623Z,0
2017-05-17T00:22:27.883Z,0
2017-05-17T00:23:38.138Z,0
2017-05-17T00:24:48.401Z,0
2017-05-17T00:25:58.661Z,0
2017-05-17T00:27:08.611Z,0
2017-05-17T00:28:18.933Z,0
2017-05-17T00:29:28.883Z,0
2017-05-17T00:30:39.146Z,0
2017-05-17T00:31:49.458Z,0
2017-05-17T00:32:59.719Z,0
2017-05-17T00:34:09.983Z,0
2017-05-17T00:35:20.246Z,0
2017-05-17T00:36:30.502Z,0
2017-05-17T00:37:40.443Z,0
2017-05-17T00:38:50.700Z,0
2017-05-17T00:40:00.653Z,0
2017-05-17T00:41:10.911Z,0
2017-05-17T00:42:21.232Z,0
2017-05-17T00:43:31.501Z,0
2017-05-17T00:44:41.769Z,0
2017-05-17T00:45:51.714Z,0
2017-05-17T00:47:01.978Z,0
2017-05-17T00:48:12.240Z,0
2017-05-17T00:49:22.513Z,0
2017-05-17T00:50:32.779Z,0
2017-05-17T00:51:43.043Z,0
2017-05-17T00:52:53.309Z,0
2017-05-17T00:54:03.587Z,0
2017-05-17T00:55:13.856Z,0
2017-05-17T00:56:24.116Z,0
2017-05-17T00:57:34.385Z,0
2017-05-17T00:58:44.652Z,0
2017-05-17T00:59:54.906Z,0
2017-05-17T01:01:05.167Z,0
2017-05-17T01:02:15.432Z,0
2017-05-17T01:03:25.692Z,0
2017-05-17T01:04:35.951Z,0
2017-05-17T01:05:46.216Z,0
2017-05-17T01:06:56.525Z,0
2017-05-17T01:08:06.480Z,0
2017-05-17T01:09:16.744Z,0
2017-05-17T01:10:26.693Z,0
2017-05-17T01:11:36.956Z,0
2017-05-17T01:12:47.222Z,0
2017-05-17T01:13:57.491Z,0
2017-05-17T01:15:07.756Z,0
2017-05-17T01:16:17.701Z,0
2017-05-17T01:17:27.649Z,0
2017-05-17T01:18:37.915Z,0
2017-05-17T01:19:48.179Z,0
2017-05-17T01:20:58.442Z,0
2017-05-17T01:22:08.702Z,0
2017-05-17T01:23:19.294Z,0
2017-05-17T01:24:29.568Z,0
2017-05-17T01:25:39.825Z,0
2017-05-17T01:26:50.089Z,0
2017-05-17T01:28:00.408Z,0
2017-05-17T01:29:10.362Z,0
2017-05-17T01:30:20.620Z,0
2017-05-17T01:31:30.876Z,0
2017-05-17T01:32:40.833Z,0
2017-05-17T01:33:51.097Z,0
2017-05-17T01:35:01.375Z,0
2017-05-17T01:36:11.640Z,0
2017-05-17T01:37:21.905Z,0
2017-05-17T01:38:32.178Z,0
2017-05-17T01:39:42.447Z,0
2017-05-17T01:40:52.714Z,0
2017-05-17T01:42:02.981Z,0
2017-05-17T01:43:13.244Z,0
2017-05-17T01:44:23.508Z,0
2017-05-17T01:45:33.770Z,0
2017-05-17T01:46:44.034Z,0
2017-05-17T01:47:54.307Z,0
2017-05-17T01:49:04.250Z,0
2017-05-17T01:50:14.526Z,0
2017-05-17T01:51:24.790Z,0
2017-05-17T01:52:34.745Z,0
2017-05-17T01:53:45.009Z,0
2017-05-17T01:54:55.268Z,0
2017-05-17T01:56:05.219Z,0
2017-05-17T01:57:14.854Z,0
2017-05-17T01:58:24.803Z,0
2017-05-17T01:59:35.073Z,0
2017-05-17T02:00:45.333Z,0
2017-05-17T02:01:55.604Z,0
2017-05-17T02:03:05.872Z,0
2017-05-17T02:04:16.139Z,0
2017-05-17T02:05:26.089Z,0
2017-05-17T02:06:36.346Z,0
2017-05-17T02:07:46.608Z,0
2017-05-17T02:08:56.570Z,0
2017-05-17T02:10:06.832Z,0
2017-05-17T02:11:17.095Z,0
2017-05-17T02:12:27.360Z,0
2017-05-17T02:13:37.319Z,0
2017-05-17T02:14:47.580Z,0
2017-05-17T02:15:57.839Z,0
2017-05-17T02:17:07.788Z,0
2017-05-17T02:18:18.047Z,0
2017-05-17T02:19:27.370Z,0
2017-05-17T02:20:37.641Z,0
2017-05-17T02:21:47.898Z,0
2017-05-17T02:22:58.167Z,0
2017-05-17T02:24:08.428Z,0
2017-05-17T02:25:18.692Z,0
2017-05-17T02:26:28.955Z,0
2017-05-17T02:27:38.904Z,0
2017-05-17T02:28:49.169Z,0
2017-05-17T02:29:59.438Z,0
2017-05-17T02:31:09.699Z,0
2017-05-17T02:32:19.648Z,0
2017-05-17T02:33:29.912Z,0
2017-05-17T02:34:40.177Z,0
2017-05-17T02:35:49.812Z,0
2017-05-17T02:37:00.074Z,0
2017-05-17T02:38:10.071Z,5
2017-05-17T02:39:20.028Z,5
2017-05-17T02:40:30.288Z,5
2017-05-17T02:41:40.553Z,5
2017-05-17T02:42:50.499Z,5
2017-05-17T02:44:00.448Z,5
2017-05-17T02:45:10.406Z,5
2017-05-17T02:46:20.353Z,5
2017-05-17T02:47:30.616Z,5
2017-05-17T02:48:40.871Z,5
2017-05-17T02:49:51.137Z,5
2017-05-17T02:51:01.404Z,5
2017-05-17T02:52:11.671Z,5
2017-05-17T02:53:21.950Z,5
2017-05-17T02:54:32.212Z,5
2017-05-17T02:55:42.474Z,5
2017-05-17T02:56:52.427Z,5
2017-05-17T02:58:02.690Z,5
2017-05-17T02:59:12.633Z,5
2017-05-17T03:00:22.894Z,5
2017-05-17T03:01:33.150Z,5
2017-05-17T03:02:43.411Z,5
2017-05-17T03:03:53.674Z,5
2017-05-17T03:05:03.631Z,5
2017-05-17T03:06:13.896Z,10
2017-05-17T03:07:24.161Z,10
2017-05-17T03:08:34.162Z,10
2017-05-17T03:09:44.428Z,10
2017-05-17T03:10:54.686Z,10
2017-05-17T03:12:04.997Z,10
2017-05-17T03:13:14.947Z,10
2017-05-17T03:14:25.210Z,10
2017-05-17T03:15:35.156Z,10
2017-05-17T03:16:45.418Z,10
2017-05-17T03:17:55.680Z,10
2017-05-17T03:19:05.938Z,10
2017-05-17T03:20:15.886Z,10
2017-05-17T03:21:26.148Z,10
2017-05-17T03:22:36.418Z,10
2017-05-17T03:23:46.680Z,10
2017-05-17T03:24:56.951Z,15
2017-05-17T03:26:06.900Z,15
2017-05-17T03:27:17.170Z,15
2017-05-17T03:28:27.119Z,20
2017-05-17T03:29:37.065Z,20
2017-05-17T03:30:47.325Z,20
2017-05-17T03:31:57.590Z,25
2017-05-17T03:33:07.538Z,20
2017-05-17T03:34:17.491Z,20
2017-05-17T03:35:27.442Z,20
2017-05-17T03:36:37.706Z,20
2017-05-17T03:37:47.672Z,20
2017-05-17T03:38:57.934Z,15
2017-05-17T03:40:07.898Z,15
2017-05-17T03:41:18.161Z,15
2017-05-17T03:42:28.423Z,20
2017-05-17T03:43:38.680Z,25
2017-05-17T03:44:48.942Z,25
2017-05-17T03:45:59.210Z,30
2017-05-17T03:47:09.474Z,30
2017-05-17T03:48:19.741Z,35
2017-05-17T03:49:29.695Z,35
2017-05-17T03:50:39.955Z,40
2017-05-17T03:51:50.218Z,40
2017-05-17T03:53:00.487Z,40
2017-05-17T03:54:10.754Z,45
2017-05-17T03:55:21.013Z,45
2017-05-17T03:56:31.274Z,50
2017-05-17T03:57:41.543Z,45
2017-05-17T03:58:51.810Z,45
2017-05-17T04:00:01.768Z,45
2017-05-17T04:01:12.039Z,40
2017-05-17T04:02:22.296Z,40
2017-05-17T04:03:32.244Z,35
2017-05-17T04:04:42.567Z,35
2017-05-17T04:05:52.832Z,35
2017-05-17T04:07:02.788Z,35
2017-05-17T04:08:12.421Z,35
2017-05-17T04:09:22.683Z,35
2017-05-17T04:10:32.948Z,35
2017-05-17T04:11:43.213Z,35
2017-05-17T04:12:53.168Z,30
2017-05-17T04:14:03.440Z,30
2017-05-17T04:15:13.708Z,35
2017-05-17T04:16:23.970Z,40
2017-05-17T04:17:34.229Z,40
2017-05-17T04:18:44.502Z,45
2017-05-17T04:19:54.775Z,45
2017-05-17T04:21:05.032Z,40
2017-05-17T04:22:14.979Z,40
2017-05-17T04:23:25.247Z,40
2017-05-17T04:24:35.509Z,40
2017-05-17T04:25:45.774Z,35
2017-05-17T04:26:56.038Z,35
2017-05-17T04:28:06.302Z,35
2017-05-17T04:29:16.247Z,40
2017-05-17T04:30:26.510Z,40
2017-05-17T04:31:36.148Z,45
2017-05-17T04:32:46.410Z,50
2017-05-17T04:33:56.675Z,55
2017-05-17T04:35:06.941Z,55
2017-05-17T04:36:16.886Z,50
2017-05-17T04:37:26.830Z,50
2017-05-17T04:38:36.780Z,55
2017-05-17T04:39:47.048Z,60
2017-05-17T04:40:57.309Z,75
2017-05-17T04:42:07.579Z,85
2017-05-17T04:43:17.840Z,105
2017-05-17T04:44:28.105Z,120
2017-05-17T04:45:38.055Z,120
2017-05-17T04:46:48.315Z,120
2017-05-17T04:47:58.579Z,120
2017-05-17T04:49:08.836Z,125
2017-05-17T04:50:18.776Z,125
2017-05-17T04:51:29.031Z,125
2017-05-17T04:52:38.985Z,125
2017-05-17T04:53:49.257Z,130
2017-05-17T04:54:59.529Z,130
2017-05-17T04:56:09.483Z,130
2017-05-17T04:57:19.753Z,125
2017-05-17T04:58:30.009Z,125
2017-05-17T04:59:40.272Z,125
2017-05-17T05:00:50.537Z,135
2017-05-17T05:02:00.807Z,140
2017-05-17T05:03:11.070Z,135
2017-05-17T05:04:21.331Z,130
2017-05-17T05:05:31.595Z,125
2017-05-17T05:06:41.867Z,125
2017-05-17T05:07:52.137Z,130
2017-05-17T05:09:02.418Z,125
2017-05-17T05:10:12.723Z,110
2017-05-17T05:11:22.669Z,100
2017-05-17T05:12:32.988Z,95
2017-05-17T05:13:43.255Z,90
2017-05-17T05:14:53.204Z,90
2017-05-17T05:16:03.472Z,90
2017-05-17T05:17:13.735Z,95
2017-05-17T05:18:23.369Z,110
2017-05-17T05:19:33.321Z,135
2017-05-17T05:20:43.583Z,165
2017-05-17T05:21:53.864Z,170
2017-05-17T05:23:04.131Z,175
2017-05-17T05:24:14.398Z,135
2017-05-17T05:25:24.664Z,115
2017-05-17T05:26:34.613Z,105
2017-05-17T05:27:44.893Z,115
2017-05-17T05:28:55.152Z,135
2017-05-17T05:30:05.417Z,150
2017-05-17T05:31:15.370Z,175
2017-05-17T05:32:25.656Z,185
2017-05-17T05:33:35.979Z,200
2017-05-17T05:34:46.253Z,200
2017-05-17T05:35:56.527Z,205
2017-05-17T05:37:06.805Z,190
2017-05-17T05:38:16.441Z,190
2017-05-17T05:39:26.705Z,190
2017-05-17T05:40:38.661Z,190
2017-05-17T05:41:48.612Z,190
2017-05-17T05:42:58.927Z,190
2017-05-17T05:44:09.204Z,195
2017-05-17T05:45:19.477Z,200
2017-05-17T05:46:29.741Z,210
2017-05-17T05:47:39.748Z,210
2017-05-17T05:48:50.006Z,210
2017-05-17T05:50:00.271Z,215
2017-05-17T05:51:10.225Z,220
2017-05-17T05:52:23.443Z,225
2017-05-17T05:53:33.711Z,220
2017-05-17T05:54:43.977Z,215
2017-05-17T05:55:54.243Z,205
2017-05-17T05:57:04.508Z,195
2017-05-17T05:58:14.139Z,190
2017-05-17T05:59:24.404Z,200
2017-05-17T06:00:34.673Z,230
2017-05-17T06:01:44.950Z,215
2017-05-17T06:02:55.217Z,250
2017-05-17T06:04:05.543Z,255
2017-05-17T06:05:15.497Z,285
2017-05-17T06:06:25.758Z,305
2017-05-17T06:07:35.704Z,300
2017-05-17T06:08:45.974Z,260
2017-05-17T06:09:56.233Z,230
2017-05-17T06:11:06.503Z,280
2017-05-17T06:12:16.451Z,295
2017-05-17T06:13:26.712Z,310
2017-05-17T06:14:36.985Z,330
2017-05-17T06:15:46.934Z,325
2017-05-17T06:16:57.201Z,275
2017-05-17T06:18:07.162Z,285
2017-05-17T06:19:17.430Z,310
2017-05-17T06:20:27.697Z,300
2017-05-17T06:21:37.969Z,335
2017-05-17T06:22:48.233Z,435
2017-05-17T06:23:58.502Z,400
2017-05-17T06:25:08.452Z,365
2017-05-17T06:26:18.467Z,335
2017-05-17T06:27:28.733Z,325
2017-05-17T06:28:38.685Z,315
2017-05-17T06:29:48.950Z,305
2017-05-17T06:30:58.917Z,310
2017-05-17T06:32:08.864Z,320
2017-05-17T06:33:18.823Z,325
2017-05-17T06:34:29.097Z,350
2017-05-17T06:35:39.369Z,345
2017-05-17T06:36:49.641Z,315
2017-05-17T06:37:59.594Z,305
2017-05-17T06:39:09.544Z,305
2017-05-17T06:40:19.502Z,270
2017-05-17T06:41:29.771Z,265
2017-05-17T06:42:40.042Z,235
2017-05-17T06:43:50.306Z,265
2017-05-17T06:45:00.584Z,315
2017-05-17T06:46:10.854Z,385
2017-05-17T06:47:21.122Z,375
2017-05-17T06:48:31.394Z,400
2017-05-17T06:49:41.664Z,430
2017-05-17T06:50:51.927Z,435
2017-05-17T06:52:02.192Z,425
2017-05-17T06:53:12.137Z,400
2017-05-17T06:54:22.099Z,375
2017-05-17T06:55:32.367Z,450
2017-05-17T06:56:42.650Z,425
2017-05-17T06:57:52.917Z,445
2017-05-17T06:59:03.181Z,420
2017-05-17T07:00:13.453Z,350
2017-05-17T07:01:23.724Z,290
2017-05-17T07:02:34.006Z,280
2017-05-17T07:03:44.276Z,280
2017-05-17T07:04:54.547Z,315
2017-05-17T07:06:04.500Z,320
2017-05-17T07:07:14.775Z,310
2017-05-17T07:08:25.043Z,295
2017-05-17T07:09:35.310Z,285
2017-05-17T07:10:45.260Z,280
2017-05-17T07:11:55.525Z,305
2017-05-17T07:13:05.799Z,375
2017-05-17T07:14:15.747Z,435
2017-05-17T07:15:26.015Z,375
2017-05-17T07:16:36.288Z,340
2017-05-17T07:17:46.560Z,330
2017-05-17T07:18:56.834Z,305
2017-05-17T07:20:07.114Z,260
2017-05-17T07:21:17.388Z,320
2017-05-17T07:22:27.651Z,330
2017-05-17T07:23:37.921Z,320
2017-05-17T07:24:47.565Z,340
2017-05-17T07:25:57.871Z,365
2017-05-17T07:27:08.142Z,350
2017-05-17T07:28:18.417Z,340
2017-05-17T07:29:28.688Z,345
2017-05-17T07:30:38.641Z,345
2017-05-17T07:31:48.903Z,345
2017-05-17T07:32:59.185Z,305
2017-05-17T07:34:09.455Z,360
2017-05-17T07:35:19.721Z,385
2017-05-17T07:36:29.992Z,435
2017-05-17T07:37:40.255Z,435
2017-05-17T07:38:50.524Z,440
2017-05-17T07:40:00.478Z,420
2017-05-17T07:41:10.741Z,345
2017-05-17T07:42:20.691Z,380
2017-05-17T07:43:30.958Z,350
2017-05-17T07:44:41.243Z,430
2017-05-17T07:45:51.506Z,475
2017-05-17T07:47:01.773Z,460
2017-05-17T07:48:12.046Z,375
2017-05-17T07:49:22.310Z,400
2017-05-17T07:50:32.574Z,395
2017-05-17T07:51:42.841Z,375
2017-05-17T07:52:53.109Z,370
2017-05-17T07:54:03.377Z,380
2017-05-17T07:55:13.644Z,380
2017-05-17T07:56:23.282Z,390
2017-05-17T07:57:33.553Z,390
2017-05-17T07:58:43.817Z,390
2017-05-17T07:59:54.097Z,440
2017-05-17T08:01:04.364Z,565
2017-05-17T08:02:14.634Z,430
2017-05-17T08:03:24.597Z,375
2017-05-17T08:04:34.874Z,345
2017-05-17T08:05:44.827Z,310
2017-05-17T08:06:55.093Z,370
2017-05-17T08:08:05.366Z,320
2017-05-17T08:09:15.320Z,295
2017-05-17T08:10:24.961Z,240
2017-05-17T08:11:34.917Z,245
2017-05-17T08:12:45.182Z,320
2017-05-17T08:13:55.461Z,290
2017-05-17T08:15:05.409Z,245
2017-05-17T08:16:14.729Z,245
2017-05-17T08:17:24.374Z,240
2017-05-17T08:18:34.343Z,245
2017-05-17T08:19:44.626Z,250
2017-05-17T08:20:54.900Z,245
2017-05-17T08:22:05.172Z,260
2017-05-17T08:23:15.440Z,270
2017-05-17T08:24:25.711Z,260
2017-05-17T08:25:35.977Z,260
2017-05-17T08:26:45.933Z,285
2017-05-17T08:27:55.893Z,285
2017-05-17T08:29:06.159Z,265
2017-05-17T08:30:16.434Z,300
2017-05-17T08:31:26.390Z,305
2017-05-17T08:32:36.662Z,310
2017-05-17T08:33:46.619Z,295
2017-05-17T08:34:56.573Z,305
2017-05-17T08:36:06.849Z,315
2017-05-17T08:37:16.808Z,360
2017-05-17T08:38:27.082Z,390
2017-05-17T08:39:37.350Z,335
2017-05-17T08:40:47.625Z,370
2017-05-17T08:41:57.579Z,440
2017-05-17T08:43:07.842Z,425
2017-05-17T08:44:17.802Z,330
2017-05-17T08:45:28.116Z,250
2017-05-17T08:46:38.380Z,320
2017-05-17T08:47:48.645Z,335
2017-05-17T08:48:58.910Z,280
2017-05-17T08:50:09.184Z,250
2017-05-17T08:51:19.454Z,250
2017-05-17T08:52:29.718Z,305
2017-05-17T08:53:39.670Z,340
2017-05-17T08:54:49.312Z,315
2017-05-17T08:55:59.587Z,335
2017-05-17T08:57:09.856Z,320
2017-05-17T08:58:20.133Z,330
2017-05-17T08:59:30.402Z,365
2017-05-17T09:00:40.361Z,360
2017-05-17T09:01:50.631Z,350
2017-05-17T09:03:00.898Z,325
2017-05-17T09:04:11.172Z,365
2017-05-17T09:05:21.443Z,330
2017-05-17T09:06:31.090Z,330
2017-05-17T09:07:41.369Z,345
2017-05-17T09:08:51.635Z,440
2017-05-17T09:10:01.590Z,440
2017-05-17T09:11:11.860Z,445
2017-05-17T09:12:22.128Z,490
2017-05-17T09:13:32.397Z,575
2017-05-17T09:14:42.666Z,525
2017-05-17T09:15:52.947Z,410
2017-05-17T09:17:02.895Z,445
2017-05-17T09:18:13.231Z,595
2017-05-17T09:19:23.191Z,580
2017-05-17T09:20:33.147Z,505
2017-05-17T09:21:43.415Z,510
2017-05-17T09:22:53.369Z,570
2017-05-17T09:24:03.632Z,620
2017-05-17T09:25:13.895Z,645
2017-05-17T09:26:23.851Z,655
2017-05-17T09:27:34.125Z,655
2017-05-17T09:28:44.082Z,635
2017-05-17T09:29:54.050Z,630
2017-05-17T09:31:04.316Z,635
2017-05-17T09:32:13.963Z,675
2017-05-17T09:33:23.912Z,665
2017-05-17T09:34:34.183Z,635
2017-05-17T09:35:44.462Z,635
2017-05-17T09:36:54.731Z,635
2017-05-17T09:38:05.008Z,560
2017-05-17T09:39:15.296Z,545
2017-05-17T09:40:25.566Z,560
2017-05-17T09:41:35.833Z,580
2017-05-17T09:42:46.111Z,585
2017-05-17T09:43:56.387Z,625
2017-05-17T09:45:06.665Z,610
2017-05-17T09:46:16.949Z,585
2017-05-17T09:47:26.916Z,580
2017-05-17T09:48:37.204Z,515
2017-05-17T09:49:47.479Z,500
2017-05-17T09:50:57.756Z,455
2017-05-17T09:52:08.026Z,415
2017-05-17T09:53:17.983Z,435
2017-05-17T09:54:28.257Z,485
2017-05-17T09:55:38.533Z,510
2017-05-17T09:56:48.805Z,430
2017-05-17T09:57:59.082Z,575
2017-05-17T09:59:22.091Z,495
2017-05-17T10:00:32.358Z,545
2017-05-17T10:01:42.313Z,530
2017-05-17T10:02:52.581Z,435
2017-05-17T10:04:02.849Z,495
2017-05-17T10:05:12.496Z,415
2017-05-17T10:06:22.769Z,360
2017-05-17T10:07:32.726Z,325
2017-05-17T10:08:42.993Z,225
2017-05-17T10:09:52.944Z,215
2017-05-17T10:11:03.214Z,280
2017-05-17T10:12:13.233Z,255
2017-05-17T10:13:23.504Z,205
2017-05-17T10:14:33.458Z,185
2017-05-17T10:15:43.731Z,260
2017-05-17T10:16:54.005Z,335
2017-05-17T10:18:04.272Z,355
2017-05-17T10:19:14.232Z,385
2017-05-17T10:20:24.192Z,440
2017-05-17T10:21:34.461Z,555
2017-05-17T10:22:44.725Z,530
2017-05-17T10:23:55.004Z,525
2017-05-17T10:25:04.955Z,525
2017-05-17T10:26:14.909Z,450
2017-05-17T10:27:24.549Z,480
2017-05-17T10:28:34.505Z,270
2017-05-17T10:29:44.770Z,450
2017-05-17T10:30:55.039Z,470
2017-05-17T10:32:04.992Z,420
2017-05-17T10:33:14.991Z,450
2017-05-17T10:34:24.946Z,500
2017-05-17T10:35:35.221Z,600
2017-05-17T10:36:45.512Z,685
2017-05-17T10:37:55.777Z,630
2017-05-17T10:39:05.741Z,555
2017-05-17T10:40:16.021Z,635
2017-05-17T10:41:26.288Z,680
2017-05-17T10:42:36.566Z,615
2017-05-17T10:43:46.840Z,550
2017-05-17T10:44:56.801Z,655
2017-05-17T10:46:07.066Z,740
2017-05-17T10:47:16.710Z,645
2017-05-17T10:48:26.979Z,565
2017-05-17T10:49:37.548Z,585
2017-05-17T10:50:47.811Z,685
2017-05-17T10:51:57.767Z,645
2017-05-17T10:53:08.037Z,475
2017-05-17T10:54:18.304Z,595
2017-05-17T10:55:28.274Z,445
2017-05-17T10:56:38.541Z,675
2017-05-17T10:57:48.816Z,595
2017-05-17T10:58:59.088Z,590
2017-05-17T11:00:09.044Z,665
2017-05-17T11:01:19.004Z,725
2017-05-17T11:02:29.278Z,735
2017-05-17T11:03:39.554Z,770
2017-05-17T11:04:49.825Z,765
2017-05-17T11:06:00.094Z,715
2017-05-17T11:07:10.365Z,665
2017-05-17T11:08:20.644Z,450
2017-05-17T11:09:30.932Z,430
2017-05-17T11:10:41.206Z,490
2017-05-17T11:11:51.479Z,740
2017-05-17T11:13:01.810Z,740
2017-05-17T11:14:11.472Z,780
2017-05-17T11:15:21.431Z,630
2017-05-17T11:16:31.699Z,480
2017-05-17T11:17:41.970Z,575
2017-05-17T11:18:52.247Z,510
2017-05-17T11:20:02.202Z,900
2017-05-17T11:21:12.480Z,885
2017-05-17T11:22:22.753Z,875
2017-05-17T11:23:33.031Z,940
2017-05-17T11:24:43.298Z,935
2017-05-17T11:25:53.568Z,995
2017-05-17T11:27:03.850Z,1030
2017-05-17T11:28:13.495Z,990
2017-05-17T11:29:23.450Z,1015
2017-05-17T11:30:33.096Z,985
2017-05-17T11:31:43.370Z,955
2017-05-17T11:32:53.329Z,850
2017-05-17T11:34:03.658Z,690
2017-05-17T11:35:13.928Z,665
2017-05-17T11:36:23.883Z,555
2017-05-17T11:37:34.151Z,385
2017-05-17T11:38:44.123Z,405
2017-05-17T11:39:54.400Z,455
2017-05-17T11:41:04.668Z,470
2017-05-17T11:42:14.635Z,585
2017-05-17T11:43:24.593Z,535
2017-05-17T11:44:34.551Z,450
2017-05-17T11:45:44.836Z,395
2017-05-17T11:46:54.793Z,385
2017-05-17T11:48:05.064Z,585
2017-05-17T11:49:15.343Z,565
2017-05-17T11:50:25.614Z,555
2017-05-17T11:51:35.883Z,520
2017-05-17T11:52:46.156Z,410
2017-05-17T11:53:56.119Z,465
2017-05-17T11:55:06.393Z,425
2017-05-17T11:56:16.352Z,275
2017-05-17T11:57:26.623Z,265
2017-05-17T11:58:36.584Z,280
2017-05-17T11:59:46.869Z,355
2017-05-17T12:00:57.150Z,520
2017-05-17T12:02:07.423Z,650
2017-05-17T12:03:17.695Z,620
2017-05-17T12:04:27.663Z,685
2017-05-17T12:05:37.929Z,685
2017-05-17T12:06:48.198Z,495
2017-05-17T12:07:58.472Z,310
2017-05-17T12:09:08.429Z,360
2017-05-17T12:10:18.102Z,285
2017-05-17T12:11:28.060Z,300
2017-05-17T12:12:38.324Z,540
2017-05-17T12:13:47.974Z,585
2017-05-17T12:14:58.243Z,555
2017-05-17T12:16:08.513Z,640
2017-05-17T12:17:18.466Z,585
2017-05-17T12:18:28.429Z,565
2017-05-17T12:19:38.692Z,660
2017-05-17T12:20:48.968Z,650
2017-05-17T12:21:59.235Z,510
2017-05-17T12:23:09.509Z,615
2017-05-17T12:24:19.778Z,625
2017-05-17T12:25:30.105Z,625
2017-05-17T12:26:40.377Z,680
2017-05-17T12:27:50.331Z,520
2017-05-17T12:29:00.609Z,375
2017-05-17T12:30:10.877Z,440
2017-05-17T12:31:21.152Z,450
2017-05-17T12:32:31.426Z,370
2017-05-17T12:33:41.705Z,365
2017-05-17T12:34:51.977Z,420
2017-05-17T12:36:02.251Z,380
2017-05-17T12:37:12.210Z,410
2017-05-17T12:38:22.498Z,460
2017-05-17T12:39:32.147Z,470
2017-05-17T12:40:42.107Z,395
2017-05-17T12:41:52.377Z,390
2017-05-17T12:43:02.341Z,290
2017-05-17T12:44:12.308Z,355
2017-05-17T12:45:22.586Z,360
2017-05-17T12:46:32.848Z,425
2017-05-17T12:47:43.120Z,430
2017-05-17T12:48:53.073Z,395
2017-05-17T12:50:03.033Z,385
2017-05-17T12:51:12.671Z,305
2017-05-17T12:52:22.623Z,395
2017-05-17T12:53:32.897Z,380
2017-05-17T12:54:43.175Z,365
2017-05-17T12:55:53.132Z,335
2017-05-17T12:57:03.394Z,300
2017-05-17T12:58:13.355Z,300
2017-05-17T12:59:23.321Z,455
2017-05-17T13:00:33.278Z,505
2017-05-17T13:01:43.243Z,545
2017-05-17T13:02:53.201Z,540
2017-05-17T13:04:03.473Z,460
2017-05-17T13:05:13.114Z,440
2017-05-17T13:06:23.386Z,580
2017-05-17T13:07:33.661Z,545
2017-05-17T13:08:43.615Z,580
2017-05-17T13:09:53.879Z,585
2017-05-17T13:11:04.153Z,530
2017-05-17T13:12:14.106Z,630
2017-05-17T13:13:23.804Z,625
2017-05-17T13:14:33.766Z,630
2017-05-17T13:15:43.727Z,730
2017-05-17T13:16:54.050Z,925
2017-05-17T13:18:04.020Z,1050
2017-05-17T13:19:13.976Z,930
2017-05-17T13:20:23.927Z,900
2017-05-17T13:21:34.197Z,990
2017-05-17T13:22:44.467Z,985
2017-05-17T13:23:54.745Z,840
2017-05-17T13:25:04.390Z,830
2017-05-17T13:26:14.030Z,890
2017-05-17T13:27:23.985Z,850
2017-05-17T13:28:34.257Z,905
2017-05-17T13:29:43.902Z,960
2017-05-17T13:30:54.190Z,915
2017-05-17T13:32:04.464Z,945
2017-05-17T13:33:14.738Z,915
2017-05-17T13:34:24.745Z,1070
2017-05-17T13:35:35.018Z,1905
2017-05-17T13:36:45.289Z,1435
2017-05-17T13:37:55.569Z,1225
2017-05-17T13:39:05.838Z,1370
2017-05-17T13:40:16.105Z,2585
2017-05-17T13:41:26.378Z,3355
2017-05-17T13:42:36.647Z,2140
2017-05-17T13:43:46.917Z,1675
2017-05-17T13:44:57.247Z,3510
2017-05-17T13:46:07.524Z,2300
2017-05-17T13:47:17.488Z,1795
2017-05-17T13:48:27.758Z,2105
2017-05-17T13:49:38.035Z,3315
2017-05-17T13:50:48.052Z,3245
2017-05-17T13:51:57.705Z,1510
2017-05-17T13:53:07.676Z,1920
2017-05-17T13:54:27.275Z,1185
2017-05-17T13:55:37.555Z,1025
2017-05-17T13:56:48.050Z,1010
2017-05-17T13:57:58.331Z,1060
2017-05-17T13:59:08.663Z,830
2017-05-17T14:00:18.631Z,855
2017-05-17T14:01:28.286Z,840
2017-05-17T14:02:38.558Z,870
2017-05-17T14:03:48.859Z,760
2017-05-17T14:04:59.206Z,830
2017-05-17T14:06:08.549Z,965
2017-05-17T14:07:18.837Z,940
2017-05-17T14:08:29.112Z,1440
2017-05-17T14:09:38.770Z,940
2017-05-17T14:10:48.731Z,960
2017-05-17T14:11:59.021Z,995
2017-05-17T14:13:09.296Z,1025
2017-05-17T14:14:19.584Z,1025
2017-05-17T14:15:29.231Z,1045
2017-05-17T14:16:39.507Z,1080
2017-05-17T14:17:49.787Z,1015
2017-05-17T14:18:59.748Z,915
2017-05-17T14:20:09.395Z,910
2017-05-17T14:21:19.670Z,1015
2017-05-17T14:22:29.664Z,1125
2017-05-17T14:23:39.943Z,1060
2017-05-17T14:24:50.227Z,965
2017-05-17T14:25:59.873Z,1165
2017-05-17T14:27:09.837Z,1700
2017-05-17T14:28:20.128Z,1205
2017-05-17T14:29:30.407Z,1005
2017-05-17T14:30:40.379Z,925
2017-05-17T14:31:50.656Z,935
2017-05-17T14:33:00.932Z,1010
2017-05-17T14:34:11.214Z,1015
2017-05-17T14:35:21.174Z,960
2017-05-17T14:36:31.132Z,930
2017-05-17T14:37:41.421Z,965
2017-05-17T14:38:51.695Z,1270
2017-05-17T14:40:01.656Z,1590
2017-05-17T14:41:11.935Z,1610
2017-05-17T14:42:22.254Z,2035
2017-05-17T14:43:32.546Z,2220
2017-05-17T14:44:42.509Z,1645
2017-05-17T14:45:52.809Z,1725
2017-05-17T14:47:02.768Z,2065
2017-05-17T14:48:12.421Z,2930
2017-05-17T14:49:22.066Z,2690
2017-05-17T14:50:32.347Z,2475
2017-05-17T14:51:42.626Z,1855
2017-05-17T14:52:52.913Z,3165
2017-05-17T14:54:03.205Z,1780
2017-05-17T14:55:13.484Z,1925
2017-05-17T14:56:23.790Z,2310
2017-05-17T14:57:34.067Z,1545
2017-05-17T14:58:44.349Z,1380
2017-05-17T14:59:54.627Z,1955
2017-05-17T15:01:04.905Z,2225
2017-05-17T15:02:14.874Z,1955
2017-05-17T15:03:25.152Z,2420
2017-05-17T15:04:35.113Z,3295
2017-05-17T15:05:45.388Z,2095
2017-05-17T15:06:55.726Z,1295
2017-05-17T15:08:06.008Z,905
2017-05-17T15:09:15.980Z,705
2017-05-17T15:10:25.946Z,740
2017-05-17T15:11:36.228Z,880
2017-05-17T15:12:46.509Z,980
2017-05-17T15:13:56.799Z,980
2017-05-17T15:15:07.085Z,870
2017-05-17T15:16:17.360Z,660
2017-05-17T15:17:27.320Z,555
2017-05-17T15:18:37.600Z,485
2017-05-17T15:19:47.882Z,445
2017-05-17T15:20:58.207Z,405
2017-05-17T15:22:08.171Z,400
2017-05-17T15:23:18.440Z,470
2017-05-17T15:24:28.725Z,425
2017-05-17T15:25:39.003Z,395
2017-05-17T15:26:49.286Z,430
2017-05-17T15:27:59.569Z,445
2017-05-17T15:29:09.538Z,490
2017-05-17T15:30:19.820Z,570
2017-05-17T15:31:30.128Z,555
2017-05-17T15:32:40.399Z,505
2017-05-17T15:33:50.371Z,475
2017-05-17T15:35:00.645Z,450
2017-05-17T15:36:10.924Z,450
2017-05-17T15:37:20.881Z,450
2017-05-17T15:38:31.162Z,440
2017-05-17T15:39:41.438Z,455
2017-05-17T15:40:51.708Z,500
2017-05-17T15:42:01.670Z,700
2017-05-17T15:43:11.008Z,970
2017-05-17T15:44:20.977Z,770
2017-05-17T15:45:30.938Z,590
2017-05-17T15:46:41.218Z,515
2017-05-17T15:47:51.497Z,585
2017-05-17T15:49:01.763Z,750
2017-05-17T15:50:12.037Z,965
2017-05-17T15:51:22.312Z,930
2017-05-17T15:52:32.633Z,850
2017-05-17T15:53:42.911Z,775
2017-05-17T15:54:53.187Z,670
2017-05-17T15:56:03.455Z,610
2017-05-17T15:57:13.414Z,610
2017-05-17T15:58:23.387Z,640
2017-05-17T15:59:33.674Z,725
2017-05-17T16:00:43.942Z,710
2017-05-17T16:01:54.227Z,695
2017-05-17T16:03:04.505Z,670
2017-05-17T16:04:14.150Z,630
2017-05-17T16:05:24.110Z,660
2017-05-17T16:06:34.381Z,650
2017-05-17T16:07:44.656Z,630
2017-05-17T16:08:54.932Z,1125
2017-05-17T16:10:05.208Z,860
2017-05-17T16:11:15.162Z,810
2017-05-17T16:12:25.437Z,745
2017-05-17T16:13:35.712Z,625
2017-05-17T16:14:45.694Z,505
2017-05-17T16:15:55.971Z,430
2017-05-17T16:17:06.245Z,360
2017-05-17T16:18:16.203Z,315
2017-05-17T16:19:26.485Z,275